createdAt,value
2017-09-21T00:01:36.894Z,99340.32
2017-09-21T00:04:03.127Z,99334.22
2017-09-21T00:06:29.355Z,99333.61
2017-09-21T00:08:55.640Z,99321.30
2017-09-21T00:11:21.853Z,99325.46
2017-09-21T00:13:48.065Z,99356.73
2017-09-21T00:16:14.338Z,99355.52
2017-09-21T00:18:40.680Z,99338.80
2017-09-21T00:21:06.893Z,99329.16
2017-09-21T00:23:33.176Z,99342.20
2017-09-21T00:25:59.393Z,99359.34
2017-09-21T00:28:25.602Z,99355.75
2017-09-21T00:30:51.866Z,99352.41
2017-09-21T00:33:18.085Z,99365.12
2017-09-21T00:35:44.315Z,99368.77
2017-09-21T00:38:10.557Z,99361.12
2017-09-21T00:40:36.753Z,99355.55
2017-09-21T00:43:02.971Z,99352.35
2017-09-21T00:45:29.218Z,99348.80
2017-09-21T00:47:55.442Z,99347.59
2017-09-21T00:50:21.632Z,99360.26
2017-09-21T00:52:47.877Z,99361.11
2017-09-21T00:55:14.069Z,99355.17
2017-09-21T00:57:40.263Z,99340.95
2017-09-21T01:00:06.544Z,99343.11
2017-09-21T01:02:32.756Z,99348.05
2017-09-21T01:04:58.974Z,99351.96
2017-09-21T01:07:25.230Z,99340.62
2017-09-21T01:09:51.451Z,99324.09
2017-09-21T01:12:17.648Z,99330.06
2017-09-21T01:14:43.909Z,99339.28
2017-09-21T01:17:10.123Z,99366.25
2017-09-21T01:19:36.346Z,99393.61
2017-09-21T01:22:02.609Z,99393.74
2017-09-21T01:24:28.812Z,99408.63
2017-09-21T01:26:55.017Z,99403.62
2017-09-21T01:29:21.295Z,99379.23
2017-09-21T01:31:47.505Z,99381.00
2017-09-21T01:34:13.713Z,99416.06
2017-09-21T01:36:39.991Z,99432.86
2017-09-21T01:39:06.212Z,99398.58
2017-09-21T01:41:32.452Z,99397.92
2017-09-21T01:43:58.727Z,99397.23
2017-09-21T01:46:24.955Z,99411.45
2017-09-21T01:48:51.167Z,99406.86
2017-09-21T01:51:17.435Z,99404.02
2017-09-21T01:53:43.645Z,99395.88
2017-09-21T01:56:09.857Z,99379.89
2017-09-21T01:58:36.270Z,99380.83
2017-09-21T02:01:02.477Z,99379.63
2017-09-21T02:03:28.691Z,99374.75
2017-09-21T02:05:54.963Z,99360.36
2017-09-21T02:08:21.178Z,99356.02
2017-09-21T02:10:47.387Z,99366.70
2017-09-21T02:13:13.659Z,99367.89
2017-09-21T02:15:39.886Z,99363.38
2017-09-21T02:18:06.105Z,99369.55
2017-09-21T02:20:32.388Z,99389.03
2017-09-21T02:22:58.598Z,99398.53
2017-09-21T02:25:24.809Z,99400.66
2017-09-21T02:27:51.086Z,99386.02
2017-09-21T02:30:17.304Z,99377.95
2017-09-21T02:32:43.517Z,99364.05
2017-09-21T02:35:09.780Z,99370.58
2017-09-21T02:37:35.985Z,99388.42
2017-09-21T02:40:02.428Z,99402.69
2017-09-21T02:42:28.825Z,99396.30
2017-09-21T02:44:55.050Z,99394.23
2017-09-21T02:47:21.261Z,99405.83
2017-09-21T02:49:47.541Z,99411.41
2017-09-21T02:52:13.748Z,99415.50
2017-09-21T02:54:39.954Z,99413.30
2017-09-21T02:57:06.212Z,99391.23
2017-09-21T02:59:32.412Z,99369.05
2017-09-21T03:01:58.623Z,99366.92
2017-09-21T03:04:24.873Z,99382.66
2017-09-21T03:06:51.103Z,99383.37
2017-09-21T03:09:17.330Z,99375.09
2017-09-21T03:11:43.581Z,99363.66
2017-09-21T03:14:09.975Z,99365.00
2017-09-21T03:16:36.203Z,99370.41
2017-09-21T03:19:02.473Z,99356.85
2017-09-21T03:21:28.679Z,99386.89
2017-09-21T03:23:54.889Z,99394.53
2017-09-21T03:26:21.149Z,99397.16
2017-09-21T03:28:47.368Z,99394.77
2017-09-21T03:31:13.585Z,99388.70
2017-09-21T03:33:39.874Z,99392.67
2017-09-21T03:36:06.217Z,99399.97
2017-09-21T03:38:32.494Z,99399.13
2017-09-21T03:40:59.080Z,99408.38
2017-09-21T03:43:25.475Z,99411.70
2017-09-21T03:45:51.676Z,99411.90
2017-09-21T03:48:17.924Z,99415.86
2017-09-21T03:50:44.129Z,99414.78
2017-09-21T03:53:10.352Z,99414.64
2017-09-21T03:55:36.657Z,99411.81
2017-09-21T03:58:02.867Z,99414.86
2017-09-21T04:00:29.091Z,99411.09
2017-09-21T04:02:55.355Z,99417.28
2017-09-21T04:05:21.573Z,99416.02
2017-09-21T04:07:47.803Z,99412.76
2017-09-21T04:10:14.460Z,99424.38
2017-09-21T04:12:40.950Z,99441.39
2017-09-21T04:15:07.390Z,99436.33
2017-09-21T04:17:33.740Z,99430.00
2017-09-21T04:19:59.940Z,99423.56
2017-09-21T04:22:26.161Z,99423.98
2017-09-21T04:24:52.423Z,99417.80
2017-09-21T04:27:18.665Z,99423.78
2017-09-21T04:29:44.918Z,99425.82
2017-09-21T04:32:11.184Z,99425.75
2017-09-21T04:34:37.401Z,99421.13
2017-09-21T04:37:03.612Z,99424.25
2017-09-21T04:39:29.849Z,99420.32
2017-09-21T04:41:56.089Z,99411.88
2017-09-21T04:44:22.319Z,99411.80
2017-09-21T04:46:48.610Z,99412.90
2017-09-21T04:49:14.817Z,99420.32
2017-09-21T04:51:41.085Z,99427.63
2017-09-21T04:54:07.380Z,99433.88
2017-09-21T04:56:33.620Z,99433.28
2017-09-21T04:58:59.852Z,99430.45
2017-09-21T05:01:26.096Z,99439.36
2017-09-21T05:03:52.317Z,99439.13
2017-09-21T05:06:18.545Z,99443.34
2017-09-21T05:08:44.762Z,99440.23
2017-09-21T05:11:11.194Z,99440.29
2017-09-21T05:13:37.406Z,99432.09
2017-09-21T05:16:03.649Z,99432.08
2017-09-21T05:18:29.864Z,99435.63
2017-09-21T05:20:56.092Z,99437.84
2017-09-21T05:23:22.526Z,99426.90
2017-09-21T05:25:48.763Z,99422.41
2017-09-21T05:28:14.981Z,99423.09
2017-09-21T05:30:41.214Z,99423.23
2017-09-21T05:33:07.446Z,99422.55
2017-09-21T05:35:33.663Z,99421.55
2017-09-21T05:37:59.944Z,99428.23
2017-09-21T05:40:26.152Z,99426.70
2017-09-21T05:42:52.376Z,99425.34
2017-09-21T05:45:18.638Z,99423.15
2017-09-21T05:47:44.862Z,99434.16
2017-09-21T05:50:11.087Z,99423.62
2017-09-21T05:52:37.340Z,99438.48
2017-09-21T05:55:03.562Z,99434.38
2017-09-21T05:57:29.800Z,99446.73
2017-09-21T05:59:56.065Z,99449.38
2017-09-21T06:02:22.285Z,99459.61
2017-09-21T06:04:48.508Z,99456.02
2017-09-21T06:07:14.774Z,99454.25
2017-09-21T06:09:41.008Z,99460.92
2017-09-21T06:12:07.244Z,99462.83
2017-09-21T06:14:33.548Z,99455.94
2017-09-21T06:16:59.761Z,99458.64
2017-09-21T06:19:25.989Z,99459.49
2017-09-21T06:21:52.418Z,99456.36
2017-09-21T06:24:18.771Z,99456.22
2017-09-21T06:26:45.002Z,99454.52
2017-09-21T06:29:11.280Z,99460.66
2017-09-21T06:31:37.626Z,99459.97
2017-09-21T06:34:03.857Z,99453.13
2017-09-21T06:36:30.122Z,99451.84
2017-09-21T06:38:56.360Z,99450.45
2017-09-21T06:41:22.573Z,99455.13
2017-09-21T06:43:48.824Z,99452.84
2017-09-21T06:46:15.033Z,99456.67
2017-09-21T06:48:41.242Z,99462.70
2017-09-21T06:51:07.497Z,99471.05
2017-09-21T06:53:33.706Z,99467.24
2017-09-21T06:55:59.942Z,99462.63
2017-09-21T06:58:26.218Z,99472.63
2017-09-21T07:00:52.438Z,99477.67
2017-09-21T07:03:18.663Z,99480.67
2017-09-21T07:05:44.948Z,99481.03
2017-09-21T07:08:11.166Z,99489.27
2017-09-21T07:10:37.391Z,99489.08
2017-09-21T07:13:03.673Z,99492.98
2017-09-21T07:15:29.904Z,99484.44
2017-09-21T07:17:56.118Z,99490.05
2017-09-21T07:20:22.377Z,99486.06
2017-09-21T07:22:48.600Z,99492.63
2017-09-21T07:25:14.902Z,99496.06
2017-09-21T07:27:41.170Z,99503.09
2017-09-21T07:30:07.385Z,99498.73
2017-09-21T07:32:33.592Z,99500.52
2017-09-21T07:34:59.866Z,99505.47
2017-09-21T07:37:26.086Z,99505.63
2017-09-21T07:39:52.301Z,99510.81
2017-09-21T07:42:18.584Z,99514.41
2017-09-21T07:44:44.801Z,99516.28
2017-09-21T07:47:11.032Z,99520.19
2017-09-21T07:49:37.298Z,99518.89
2017-09-21T07:52:03.527Z,99525.39
2017-09-21T07:54:29.756Z,99529.22
2017-09-21T07:56:56.043Z,99516.11
2017-09-21T07:59:22.258Z,99524.78
2017-09-21T08:01:48.468Z,99524.10
2017-09-21T08:04:14.734Z,99520.72
2017-09-21T08:06:40.947Z,99519.27
2017-09-21T08:09:07.157Z,99528.56
2017-09-21T08:11:33.429Z,99519.55
2017-09-21T08:13:59.645Z,99519.48
2017-09-21T08:16:25.873Z,99523.38
2017-09-21T08:18:52.133Z,99518.43
2017-09-21T08:21:18.349Z,99525.20
2017-09-21T08:23:44.549Z,99517.72
2017-09-21T08:26:10.809Z,99522.47
2017-09-21T08:28:37.035Z,99515.76
2017-09-21T08:31:03.250Z,99513.37
2017-09-21T08:33:29.532Z,99513.48
2017-09-21T08:35:55.755Z,99515.05
2017-09-21T08:38:21.993Z,99514.59
2017-09-21T08:40:48.260Z,99509.91
2017-09-21T08:43:14.479Z,99510.40
2017-09-21T08:45:40.704Z,99514.42
2017-09-21T08:48:06.994Z,99515.98
2017-09-21T08:50:33.203Z,99512.73
2017-09-21T08:52:59.418Z,99506.41
2017-09-21T08:55:25.713Z,99505.92
2017-09-21T08:57:51.944Z,99501.48
2017-09-21T09:00:18.165Z,99499.48
2017-09-21T09:02:44.447Z,99505.50
2017-09-21T09:05:10.675Z,99498.63
2017-09-21T09:07:36.894Z,99497.13
2017-09-21T09:10:03.173Z,99502.84
2017-09-21T09:12:29.396Z,99489.96
2017-09-21T09:14:55.613Z,99490.20
2017-09-21T09:17:21.893Z,99486.45
2017-09-21T09:19:48.131Z,99480.58
2017-09-21T09:22:14.349Z,99476.63
2017-09-21T09:24:40.588Z,99473.94
2017-09-21T09:27:06.798Z,99479.12
2017-09-21T09:29:32.998Z,99473.52
2017-09-21T09:31:59.246Z,99467.83
2017-09-21T09:34:25.450Z,99471.00
2017-09-21T09:36:51.657Z,99471.27
2017-09-21T09:39:17.852Z,99464.27
2017-09-21T09:41:44.071Z,99461.70
2017-09-21T09:44:10.294Z,99463.14
2017-09-21T09:46:36.552Z,99459.70
2017-09-21T09:49:02.872Z,99464.82
2017-09-21T09:51:29.111Z,99454.20
2017-09-21T09:53:55.352Z,99458.64
2017-09-21T09:56:21.581Z,99458.76
2017-09-21T09:58:47.802Z,99453.78
2017-09-21T10:01:14.030Z,99454.75
2017-09-21T10:03:40.247Z,99449.08
2017-09-21T10:06:06.456Z,99448.50
2017-09-21T10:08:32.691Z,99459.70
2017-09-21T10:10:58.900Z,99452.59
2017-09-21T10:13:25.134Z,99445.98
2017-09-21T10:15:51.365Z,99444.45
2017-09-21T10:18:17.577Z,99447.33
2017-09-21T10:20:43.855Z,99442.71
2017-09-21T10:23:10.078Z,99441.23
2017-09-21T10:25:36.289Z,99435.25
2017-09-21T10:28:02.558Z,99436.52
2017-09-21T10:30:28.778Z,99432.37
2017-09-21T10:32:54.990Z,99425.12
2017-09-21T10:35:21.264Z,99428.69
2017-09-21T10:37:47.487Z,99428.05
2017-09-21T10:40:13.708Z,99424.34
2017-09-21T10:42:39.974Z,99426.27
2017-09-21T10:45:06.332Z,99425.16
2017-09-21T10:47:32.555Z,99418.95
2017-09-21T10:49:58.832Z,99403.56
2017-09-21T10:52:25.046Z,99406.50
2017-09-21T10:54:51.263Z,99409.78
2017-09-21T10:57:17.547Z,99402.96
2017-09-21T10:59:43.761Z,99397.41
2017-09-21T11:02:09.974Z,99389.36
2017-09-21T11:04:36.251Z,99391.42
2017-09-21T11:07:02.459Z,99396.62
2017-09-21T11:09:28.657Z,99389.31
2017-09-21T11:11:54.910Z,99390.09
2017-09-21T11:14:21.141Z,99390.89
2017-09-21T11:16:47.379Z,99381.61
2017-09-21T11:19:13.643Z,99381.98
2017-09-21T11:21:39.855Z,99377.96
2017-09-21T11:24:06.080Z,99367.07
2017-09-21T11:26:32.346Z,99383.02
2017-09-21T11:28:58.562Z,99365.30
2017-09-21T11:31:24.884Z,99378.13
2017-09-21T11:33:51.149Z,99374.83
2017-09-21T11:36:17.367Z,99373.31
2017-09-21T11:38:43.778Z,99360.18
2017-09-21T11:41:10.058Z,99368.69
2017-09-21T11:43:36.269Z,99368.98
2017-09-21T11:46:02.498Z,99368.31
2017-09-21T11:48:28.752Z,99373.93
2017-09-21T11:50:54.963Z,99376.69
2017-09-21T11:53:21.359Z,99373.97
2017-09-21T11:55:47.663Z,99381.84
2017-09-21T11:58:13.883Z,99377.88
2017-09-21T12:00:40.115Z,99376.17
2017-09-21T12:03:06.394Z,99383.63
2017-09-21T12:05:32.624Z,99376.39
2017-09-21T12:07:58.832Z,99382.13
2017-09-21T12:10:25.140Z,99377.17
2017-09-21T12:12:51.390Z,99381.16
2017-09-21T12:15:17.617Z,99377.88
2017-09-21T12:17:43.908Z,99377.22
2017-09-21T12:20:10.256Z,99372.89
2017-09-21T12:22:36.464Z,99377.25
2017-09-21T12:25:02.775Z,99377.53
2017-09-21T12:27:29.044Z,99371.38
2017-09-21T12:29:55.284Z,99371.11
2017-09-21T12:32:21.597Z,99374.17
2017-09-21T12:34:47.800Z,99371.25
2017-09-21T12:37:14.015Z,99366.05
2017-09-21T12:39:40.306Z,99366.12
2017-09-21T12:42:06.531Z,99361.20
2017-09-21T12:44:32.775Z,99365.41
2017-09-21T12:46:59.049Z,99374.42
2017-09-21T12:49:25.284Z,99368.94
2017-09-21T12:51:51.528Z,99368.84
2017-09-21T12:54:17.930Z,99373.56
2017-09-21T12:56:44.147Z,99365.18
2017-09-21T12:59:10.436Z,99373.42
2017-09-21T13:01:37.546Z,99368.84
2017-09-21T13:04:03.767Z,99367.77
2017-09-21T13:06:30.007Z,99368.22
2017-09-21T13:08:56.281Z,99369.28
2017-09-21T13:11:22.509Z,99371.59
2017-09-21T13:13:48.721Z,99365.22
2017-09-21T13:16:14.976Z,99359.18
2017-09-21T13:18:41.205Z,99368.91
2017-09-21T13:21:07.441Z,99366.80
2017-09-21T13:23:33.756Z,99360.41
2017-09-21T13:25:59.981Z,99356.17
2017-09-21T13:28:26.204Z,99361.72
2017-09-21T13:30:52.504Z,99364.02
2017-09-21T13:33:18.714Z,99363.66
2017-09-21T13:35:44.948Z,99376.53
2017-09-21T13:38:11.217Z,99362.64
2017-09-21T13:40:37.519Z,99372.94
2017-09-21T13:43:03.729Z,99378.05
2017-09-21T13:45:30.015Z,99377.39
2017-09-21T13:47:56.235Z,99372.31
2017-09-21T13:50:22.475Z,99368.39
2017-09-21T13:52:48.758Z,99360.91
2017-09-21T13:55:15.017Z,99363.17
2017-09-21T13:57:41.251Z,99367.33
2017-09-21T14:00:07.521Z,99378.45
2017-09-21T14:02:33.726Z,99376.59
2017-09-21T14:04:59.942Z,99376.08
2017-09-21T14:07:26.226Z,99384.37
2017-09-21T14:09:52.437Z,99387.56
2017-09-21T14:12:18.645Z,99392.20
2017-09-21T14:14:44.935Z,99391.50
2017-09-21T14:17:11.277Z,99399.27
2017-09-21T14:19:37.489Z,99400.61
2017-09-21T14:22:03.781Z,99395.42
2017-09-21T14:24:29.986Z,99400.13
2017-09-21T14:26:56.183Z,99392.08
2017-09-21T14:29:22.445Z,99390.34
2017-09-21T14:31:48.663Z,99391.98
2017-09-21T14:34:14.889Z,99395.52
2017-09-21T14:36:41.161Z,99396.63
2017-09-21T14:39:07.424Z,99402.25
2017-09-21T14:41:33.654Z,99406.66
2017-09-21T14:43:59.936Z,99409.89
2017-09-21T14:46:26.168Z,99410.45
2017-09-21T14:48:52.576Z,99406.41
2017-09-21T14:51:18.875Z,99408.49
2017-09-21T14:53:45.111Z,99419.63
2017-09-21T14:56:11.333Z,99422.53
2017-09-21T14:58:37.670Z,99426.83
2017-09-21T15:01:03.886Z,99417.95
2017-09-21T15:03:30.114Z,99419.63
2017-09-21T15:05:56.421Z,99423.48
2017-09-21T15:08:22.649Z,99430.81
2017-09-21T15:10:48.894Z,99437.30
2017-09-21T15:13:15.171Z,99449.34
2017-09-21T15:15:41.466Z,99453.31
2017-09-21T15:18:07.674Z,99459.30
2017-09-21T15:20:33.942Z,99467.19
2017-09-21T15:23:00.149Z,99476.34
2017-09-21T15:25:26.390Z,99476.58
2017-09-21T15:27:52.678Z,99488.90
2017-09-21T15:30:18.903Z,99498.99
2017-09-21T15:32:45.284Z,99509.34
2017-09-21T15:35:11.624Z,99520.84
2017-09-21T15:37:37.856Z,99523.89
2017-09-21T15:40:04.071Z,99535.01
2017-09-21T15:42:30.310Z,99535.27
2017-09-21T15:44:56.644Z,99524.97
2017-09-21T15:47:22.874Z,99520.53
2017-09-21T15:49:49.137Z,99528.11
2017-09-21T15:52:15.339Z,99525.55
2017-09-21T15:54:41.536Z,99523.92
2017-09-21T15:57:07.782Z,99519.59
2017-09-21T15:59:33.969Z,99521.34
2017-09-21T16:02:00.177Z,99526.63
2017-09-21T16:04:26.427Z,99521.20
2017-09-21T16:06:52.651Z,99523.37
2017-09-21T16:09:18.866Z,99530.41
2017-09-21T16:11:45.141Z,99527.56
2017-09-21T16:14:11.342Z,99536.42
2017-09-21T16:16:37.552Z,99545.61
2017-09-21T16:19:03.827Z,99551.13
2017-09-21T16:21:30.037Z,99552.87
2017-09-21T16:23:56.238Z,99554.33
2017-09-21T16:26:22.506Z,99564.59
2017-09-21T16:28:48.723Z,99562.16
2017-09-21T16:31:14.938Z,99565.08
2017-09-21T16:33:41.187Z,99559.09
2017-09-21T16:36:07.399Z,99562.44
2017-09-21T16:38:33.620Z,99565.25
2017-09-21T16:40:59.888Z,99569.88
2017-09-21T16:43:26.086Z,99578.18
2017-09-21T16:45:52.293Z,99585.35
2017-09-21T16:48:18.565Z,99588.84
2017-09-21T16:50:44.777Z,99593.14
2017-09-21T16:53:10.975Z,99606.02
2017-09-21T16:55:37.228Z,99612.16
2017-09-21T16:58:03.416Z,99624.03
2017-09-21T17:00:29.627Z,99630.50
2017-09-21T17:02:55.904Z,99629.63
2017-09-21T17:05:22.106Z,99630.84
2017-09-21T17:07:48.332Z,99630.09
2017-09-21T17:10:14.585Z,99632.33
2017-09-21T17:12:40.776Z,99640.48
2017-09-21T17:15:06.975Z,99643.00
2017-09-21T17:17:33.255Z,99640.22
2017-09-21T17:19:59.452Z,99641.34
2017-09-21T17:22:25.662Z,99646.89
2017-09-21T17:24:51.924Z,99651.88
2017-09-21T17:27:18.127Z,99653.50
2017-09-21T17:29:44.330Z,99654.84
2017-09-21T17:32:10.618Z,99666.80
2017-09-21T17:34:36.803Z,99673.59
2017-09-21T17:37:03.004Z,99682.39
2017-09-21T17:39:29.285Z,99683.22
2017-09-21T17:41:55.492Z,99691.52
2017-09-21T17:44:21.690Z,99693.81
2017-09-21T17:46:47.960Z,99696.08
2017-09-21T17:49:14.168Z,99700.53
2017-09-21T17:51:40.369Z,99696.66
2017-09-21T17:54:06.608Z,99705.09
2017-09-21T17:56:32.804Z,99706.18
2017-09-21T17:58:58.992Z,99707.81
2017-09-21T18:01:25.260Z,99717.47
2017-09-21T18:03:51.481Z,99715.39
2017-09-21T18:06:17.703Z,99726.48
2017-09-21T18:08:43.963Z,99730.73
2017-09-21T18:11:10.164Z,99730.59
2017-09-21T18:13:36.382Z,99730.69
2017-09-21T18:16:02.764Z,99735.06
2017-09-21T18:18:28.994Z,99731.17
2017-09-21T18:20:55.334Z,99731.00
2017-09-21T18:23:21.598Z,99736.15
2017-09-21T18:25:47.809Z,99733.03
2017-09-21T18:28:14.017Z,99737.67
2017-09-21T18:30:40.463Z,99739.12
2017-09-21T18:33:06.664Z,99733.03
2017-09-21T18:35:32.878Z,99725.92
2017-09-21T18:37:59.132Z,99732.89
2017-09-21T18:40:25.422Z,99735.97
2017-09-21T18:42:51.733Z,99739.27
2017-09-21T18:45:18.016Z,99735.20
2017-09-21T18:47:44.258Z,99743.95
2017-09-21T18:50:10.461Z,99750.25
2017-09-21T18:52:36.722Z,99745.77
2017-09-21T18:55:02.939Z,99749.43
2017-09-21T18:57:29.141Z,99749.44
2017-09-21T18:59:55.428Z,99746.99
2017-09-21T19:02:21.668Z,99744.69
2017-09-21T19:04:47.885Z,99753.08
2017-09-21T19:07:14.147Z,99757.73
2017-09-21T19:09:40.364Z,99759.77
2017-09-21T19:12:06.572Z,99767.84
2017-09-21T19:14:32.871Z,99760.81
2017-09-21T19:16:59.079Z,99757.23
2017-09-21T19:19:25.277Z,99771.06
2017-09-21T19:21:51.557Z,99774.41
2017-09-21T19:24:17.753Z,99764.95
2017-09-21T19:26:43.954Z,99773.77
2017-09-21T19:29:10.196Z,99773.14
2017-09-21T19:31:36.404Z,99777.20
2017-09-21T19:34:02.600Z,99770.47
2017-09-21T19:36:28.896Z,99769.71
2017-09-21T19:38:55.098Z,99775.72
2017-09-21T19:41:21.313Z,99782.07
2017-09-21T19:43:47.550Z,99778.38
2017-09-21T19:46:13.768Z,99789.25
2017-09-21T19:48:39.966Z,99780.16
2017-09-21T19:51:06.240Z,99798.95
2017-09-21T19:53:32.469Z,99794.70
2017-09-21T19:55:58.658Z,99795.16
2017-09-21T19:58:24.921Z,99798.47
2017-09-21T20:00:51.120Z,99797.00
2017-09-21T20:03:17.329Z,99794.67
2017-09-21T20:05:43.612Z,99799.98
2017-09-21T20:08:09.844Z,99787.46
2017-09-21T20:10:36.039Z,99792.61
2017-09-21T20:13:02.290Z,99791.12
2017-09-21T20:15:28.572Z,99796.08
2017-09-21T20:17:54.780Z,99791.12
2017-09-21T20:20:21.033Z,99797.53
2017-09-21T20:22:47.238Z,99805.03
2017-09-21T20:25:13.447Z,99801.72
2017-09-21T20:27:39.697Z,99806.75
2017-09-21T20:30:05.884Z,99813.87
2017-09-21T20:32:32.128Z,99813.67
2017-09-21T20:34:58.410Z,99819.52
2017-09-21T20:37:24.650Z,99819.56
2017-09-21T20:39:50.851Z,99828.38
2017-09-21T20:42:17.119Z,99836.80
2017-09-21T20:44:43.309Z,99827.73
2017-09-21T20:47:09.524Z,99834.56
2017-09-21T20:49:35.789Z,99841.23
2017-09-21T20:52:01.992Z,99838.93
2017-09-21T20:54:28.208Z,99835.25
2017-09-21T20:56:54.518Z,99839.05
2017-09-21T20:59:20.731Z,99833.61
2017-09-21T21:01:46.946Z,99824.88
2017-09-21T21:04:13.214Z,99825.91
2017-09-21T21:06:39.424Z,99819.75
2017-09-21T21:09:05.617Z,99817.89
2017-09-21T21:11:31.962Z,99810.02
2017-09-21T21:13:58.192Z,99815.97
2017-09-21T21:16:24.402Z,99815.07
2017-09-21T21:18:50.672Z,99805.36
2017-09-21T21:21:16.887Z,99808.80
2017-09-21T21:23:43.091Z,99796.75
2017-09-21T21:26:09.348Z,99796.40
2017-09-21T21:28:35.579Z,99795.05
2017-09-21T21:31:01.769Z,99796.94
2017-09-21T21:33:28.066Z,99788.73
2017-09-21T21:35:54.279Z,99796.69
2017-09-21T21:38:20.485Z,99792.30
2017-09-21T21:40:46.740Z,99795.06
2017-09-21T21:43:12.953Z,99796.55
2017-09-21T21:45:39.143Z,99794.47
2017-09-21T21:48:05.447Z,99797.27
2017-09-21T21:50:31.639Z,99791.44
2017-09-21T21:52:57.842Z,99794.84
2017-09-21T21:55:24.095Z,99795.16
2017-09-21T21:57:50.287Z,99790.52
2017-09-21T22:00:16.483Z,99780.48
2017-09-21T22:02:42.733Z,99779.25
2017-09-21T22:05:08.927Z,99773.59
2017-09-21T22:07:35.267Z,99773.52
2017-09-21T22:10:01.529Z,99782.80
2017-09-21T22:12:27.878Z,99778.05
2017-09-21T22:14:54.068Z,99772.56
2017-09-21T22:17:20.322Z,99776.77
2017-09-21T22:19:46.527Z,99776.66
2017-09-21T22:22:12.740Z,99779.66
2017-09-21T22:24:39.027Z,99782.97
2017-09-21T22:27:05.441Z,99782.98
2017-09-21T22:29:31.714Z,99784.80
2017-09-21T22:31:58.130Z,99782.45
2017-09-21T22:34:24.516Z,99785.88
2017-09-21T22:36:50.960Z,99784.55
2017-09-21T22:39:17.218Z,99784.11
2017-09-21T22:41:43.468Z,99786.59
2017-09-21T22:44:10.085Z,99777.97
2017-09-21T22:46:36.526Z,99777.06
2017-09-21T22:49:02.761Z,99780.42
2017-09-21T22:51:29.381Z,99781.95
2017-09-21T22:53:55.835Z,99785.42
2017-09-21T22:56:22.071Z,99785.07
2017-09-21T22:58:48.291Z,99778.09
2017-09-21T23:01:14.722Z,99773.55
2017-09-21T23:03:41.096Z,99778.69
2017-09-21T23:06:07.385Z,99777.32
2017-09-21T23:08:33.813Z,99776.20
2017-09-21T23:11:00.097Z,99777.23
2017-09-21T23:13:26.693Z,99772.06
2017-09-21T23:15:53.307Z,99774.80
2017-09-21T23:18:19.692Z,99771.56
2017-09-21T23:20:46.139Z,99774.52
2017-09-21T23:23:12.410Z,99770.81
2017-09-21T23:25:38.818Z,99767.58
2017-09-21T23:28:05.241Z,99766.41
2017-09-21T23:30:31.682Z,99768.48
2017-09-21T23:32:58.121Z,99770.56
2017-09-21T23:35:24.393Z,99767.55
2017-09-21T23:37:51.026Z,99761.96
2017-09-21T23:40:17.452Z,99755.38
2017-09-21T23:42:43.690Z,99755.63
2017-09-21T23:45:10.311Z,99749.66
2017-09-21T23:47:36.726Z,99755.06
2017-09-21T23:50:02.986Z,99754.74
2017-09-21T23:52:29.426Z,99752.73
2017-09-21T23:54:56.027Z,99756.95
2017-09-21T23:57:22.284Z,99759.20
2017-09-21T23:59:48.517Z,99756.75
